sensor_id;sensor_type;location;lat;lon;timestamp;P1;durP1;ratioP1;P2;durP2;ratioP2
3280;SDS011;1652;51.318;6.202;2023-02-04T00:00:03;14.90;;;2.80;;
3280;SDS011;1652;51.318;6.202;2023-02-04T00:02:33;18.20;;;4.13;;
3280;SDS011;1652;51.318;6.202;2023-02-04T00:05:00;15.77;;;3.43;;
3280;SDS011;1652;51.318;6.202;2023-02-04T00:07:26;23.03;;;4.37;;
3280;SDS011;1652;51.318;6.202;2023-02-04T00:09:53;12.33;;;2.30;;
3280;SDS011;1652;51.318;6.202;2023-02-04T00:12:21;14.37;;;3.30;;
3280;SDS011;1652;51.318;6.202;2023-02-04T00:14:48;17.87;;;3.07;;
3280;SDS011;1652;51.318;6.202;2023-02-04T00:17:15;33.57;;;3.07;;
3280;SDS011;1652;51.318;6.202;2023-02-04T00:19:42;17.10;;;3.67;;
3280;SDS011;1652;51.318;6.202;2023-02-04T00:22:08;19.40;;;3.03;;
3280;SDS011;1652;51.318;6.202;2023-02-04T00:24:36;18.97;;;3.00;;
3280;SDS011;1652;51.318;6.202;2023-02-04T00:27:04;13.87;;;3.10;;
3280;SDS011;1652;51.318;6.202;2023-02-04T00:29:37;13.13;;;2.43;;
3280;SDS011;1652;51.318;6.202;2023-02-04T00:32:04;9.93;;;3.53;;
3280;SDS011;1652;51.318;6.202;2023-02-04T00:34:33;16.73;;;3.03;;
3280;SDS011;1652;51.318;6.202;2023-02-04T00:37:00;14.37;;;3.60;;
3280;SDS011;1652;51.318;6.202;2023-02-04T00:39:27;17.60;;;3.07;;
3280;SDS011;1652;51.318;6.202;2023-02-04T00:41:54;14.23;;;3.27;;
3280;SDS011;1652;51.318;6.202;2023-02-04T00:44:21;20.90;;;4.20;;
3280;SDS011;1652;51.318;6.202;2023-02-04T00:46:47;10.70;;;2.57;;
3280;SDS011;1652;51.318;6.202;2023-02-04T00:49:14;27.80;;;3.93;;
3280;SDS011;1652;51.318;6.202;2023-02-04T00:51:46;14.47;;;3.00;;
3280;SDS011;1652;51.318;6.202;2023-02-04T00:54:23;12.50;;;2.93;;
3280;SDS011;1652;51.318;6.202;2023-02-04T00:56:50;14.90;;;3.40;;
3280;SDS011;1652;51.318;6.202;2023-02-04T00:59:16;15.47;;;3.87;;
3280;SDS011;1652;51.318;6.202;2023-02-04T01:01:43;18.43;;;3.20;;
3280;SDS011;1652;51.318;6.202;2023-02-04T01:04:10;24.17;;;3.30;;
3280;SDS011;1652;51.318;6.202;2023-02-04T01:06:37;18.10;;;3.40;;
3280;SDS011;1652;51.318;6.202;2023-02-04T01:09:03;18.60;;;3.33;;
3280;SDS011;1652;51.318;6.202;2023-02-04T01:11:31;13.13;;;3.00;;
3280;SDS011;1652;51.318;6.202;2023-02-04T01:14:01;20.70;;;4.00;;
3280;SDS011;1652;51.318;6.202;2023-02-04T01:16:28;20.03;;;3.60;;
3280;SDS011;1652;51.318;6.202;2023-02-04T01:18:55;13.03;;;3.03;;
3280;SDS011;1652;51.318;6.202;2023-02-04T01:21:22;10.13;;;2.50;;
3280;SDS011;1652;51.318;6.202;2023-02-04T01:23:50;20.70;;;4.27;;
3280;SDS011;1652;51.318;6.202;2023-02-04T01:26:23;29.43;;;5.23;;
3280;SDS011;1652;51.318;6.202;2023-02-04T01:28:57;20.77;;;3.30;;
3280;SDS011;1652;51.318;6.202;2023-02-04T01:31:24;20.53;;;3.80;;
3280;SDS011;1652;51.318;6.202;2023-02-04T01:33:51;12.30;;;2.80;;
3280;SDS011;1652;51.318;6.202;2023-02-04T01:36:18;31.10;;;3.43;;
3280;SDS011;1652;51.318;6.202;2023-02-04T01:38:47;20.50;;;3.67;;
3280;SDS011;1652;51.318;6.202;2023-02-04T01:41:15;32.10;;;3.73;;
3280;SDS011;1652;51.318;6.202;2023-02-04T01:43:43;19.30;;;3.20;;
3280;SDS011;1652;51.318;6.202;2023-02-04T01:46:10;20.73;;;3.83;;
3280;SDS011;1652;51.318;6.202;2023-02-04T01:48:37;15.83;;;3.80;;
3280;SDS011;1652;51.318;6.202;2023-02-04T01:51:05;25.83;;;3.80;;
3280;SDS011;1652;51.318;6.202;2023-02-04T01:53:36;27.03;;;4.03;;
3280;SDS011;1652;51.318;6.202;2023-02-04T01:56:10;8.07;;;3.20;;
3280;SDS011;1652;51.318;6.202;2023-02-04T01:58:42;22.30;;;3.77;;
3280;SDS011;1652;51.318;6.202;2023-02-04T02:01:10;21.93;;;4.93;;
3280;SDS011;1652;51.318;6.202;2023-02-04T02:03:41;24.50;;;4.07;;
3280;SDS011;1652;51.318;6.202;2023-02-04T02:06:08;23.57;;;3.90;;
3280;SDS011;1652;51.318;6.202;2023-02-04T02:08:36;12.73;;;3.10;;
3280;SDS011;1652;51.318;6.202;2023-02-04T02:11:03;35.17;;;3.90;;
3280;SDS011;1652;51.318;6.202;2023-02-04T02:13:30;21.53;;;3.87;;
3280;SDS011;1652;51.318;6.202;2023-02-04T02:15:57;15.33;;;2.57;;
3280;SDS011;1652;51.318;6.202;2023-02-04T02:18:24;16.97;;;3.63;;
3280;SDS011;1652;51.318;6.202;2023-02-04T02:20:50;13.17;;;3.27;;
3280;SDS011;1652;51.318;6.202;2023-02-04T02:25:54;24.53;;;3.37;;
3280;SDS011;1652;51.318;6.202;2023-02-04T02:28:21;14.40;;;2.40;;
3280;SDS011;1652;51.318;6.202;2023-02-04T02:30:49;24.03;;;4.17;;
3280;SDS011;1652;51.318;6.202;2023-02-04T02:33:18;20.17;;;4.50;;
3280;SDS011;1652;51.318;6.202;2023-02-04T02:35:46;30.30;;;4.30;;
3280;SDS011;1652;51.318;6.202;2023-02-04T02:38:14;15.43;;;3.30;;
3280;SDS011;1652;51.318;6.202;2023-02-04T02:40:42;17.70;;;2.77;;
3280;SDS011;1652;51.318;6.202;2023-02-04T02:43:11;22.83;;;4.40;;
3280;SDS011;1652;51.318;6.202;2023-02-04T02:45:42;17.93;;;3.10;;
3280;SDS011;1652;51.318;6.202;2023-02-04T02:48:10;18.57;;;3.30;;
3280;SDS011;1652;51.318;6.202;2023-02-04T02:50:37;24.47;;;3.70;;
3280;SDS011;1652;51.318;6.202;2023-02-04T02:53:05;20.00;;;3.90;;
3280;SDS011;1652;51.318;6.202;2023-02-04T02:55:36;16.03;;;4.30;;
3280;SDS011;1652;51.318;6.202;2023-02-04T02:58:04;11.63;;;3.00;;
3280;SDS011;1652;51.318;6.202;2023-02-04T03:00:35;20.60;;;3.17;;
3280;SDS011;1652;51.318;6.202;2023-02-04T03:03:06;19.77;;;3.70;;
3280;SDS011;1652;51.318;6.202;2023-02-04T03:05:38;27.27;;;3.33;;
3280;SDS011;1652;51.318;6.202;2023-02-04T03:08:08;18.50;;;3.80;;
3280;SDS011;1652;51.318;6.202;2023-02-04T03:10:37;24.57;;;4.90;;
3280;SDS011;1652;51.318;6.202;2023-02-04T03:13:04;18.17;;;3.47;;
3280;SDS011;1652;51.318;6.202;2023-02-04T03:15:32;20.50;;;4.17;;
3280;SDS011;1652;51.318;6.202;2023-02-04T03:17:59;21.20;;;4.23;;
3280;SDS011;1652;51.318;6.202;2023-02-04T03:20:27;10.70;;;3.47;;
3280;SDS011;1652;51.318;6.202;2023-02-04T03:22:56;18.93;;;3.17;;
3280;SDS011;1652;51.318;6.202;2023-02-04T03:25:24;13.07;;;3.60;;
3280;SDS011;1652;51.318;6.202;2023-02-04T03:27:53;23.37;;;4.13;;
3280;SDS011;1652;51.318;6.202;2023-02-04T03:32:47;11.60;;;3.80;;
3280;SDS011;1652;51.318;6.202;2023-02-04T03:35:15;27.13;;;3.30;;
3280;SDS011;1652;51.318;6.202;2023-02-04T03:37:42;18.43;;;3.30;;
3280;SDS011;1652;51.318;6.202;2023-02-04T03:40:09;18.63;;;3.77;;
3280;SDS011;1652;51.318;6.202;2023-02-04T03:42:36;26.23;;;4.07;;
3280;SDS011;1652;51.318;6.202;2023-02-04T03:45:03;20.90;;;3.77;;
3280;SDS011;1652;51.318;6.202;2023-02-04T03:47:30;13.50;;;3.57;;
3280;SDS011;1652;51.318;6.202;2023-02-04T03:49:57;25.50;;;4.53;;
3280;SDS011;1652;51.318;6.202;2023-02-04T03:52:24;17.60;;;3.40;;
3280;SDS011;1652;51.318;6.202;2023-02-04T03:54:51;24.53;;;4.37;;
3280;SDS011;1652;51.318;6.202;2023-02-04T03:57:17;23.20;;;4.10;;
3280;SDS011;1652;51.318;6.202;2023-02-04T03:59:44;20.80;;;4.17;;
3280;SDS011;1652;51.318;6.202;2023-02-04T04:02:11;17.13;;;3.40;;
3280;SDS011;1652;51.318;6.202;2023-02-04T04:04:38;20.00;;;4.10;;
3280;SDS011;1652;51.318;6.202;2023-02-04T04:07:05;18.33;;;4.10;;
3280;SDS011;1652;51.318;6.202;2023-02-04T04:09:32;31.33;;;3.83;;
3280;SDS011;1652;51.318;6.202;2023-02-04T04:11:58;31.53;;;5.00;;
3280;SDS011;1652;51.318;6.202;2023-02-04T04:14:26;18.80;;;4.40;;
3280;SDS011;1652;51.318;6.202;2023-02-04T04:16:52;32.50;;;4.60;;
3280;SDS011;1652;51.318;6.202;2023-02-04T04:19:19;35.10;;;4.83;;
3280;SDS011;1652;51.318;6.202;2023-02-04T04:21:46;31.83;;;6.53;;
3280;SDS011;1652;51.318;6.202;2023-02-04T04:24:13;31.43;;;4.90;;
3280;SDS011;1652;51.318;6.202;2023-02-04T04:26:39;20.27;;;4.33;;
3280;SDS011;1652;51.318;6.202;2023-02-04T04:29:06;27.63;;;5.13;;
3280;SDS011;1652;51.318;6.202;2023-02-04T04:31:33;16.40;;;4.73;;
3280;SDS011;1652;51.318;6.202;2023-02-04T04:34:00;28.80;;;5.17;;
3280;SDS011;1652;51.318;6.202;2023-02-04T04:36:27;38.93;;;5.93;;
3280;SDS011;1652;51.318;6.202;2023-02-04T04:38:54;15.73;;;5.50;;
3280;SDS011;1652;51.318;6.202;2023-02-04T04:41:20;25.37;;;5.23;;
3280;SDS011;1652;51.318;6.202;2023-02-04T04:43:47;25.20;;;4.83;;
3280;SDS011;1652;51.318;6.202;2023-02-04T04:46:14;17.50;;;5.37;;
3280;SDS011;1652;51.318;6.202;2023-02-04T04:48:41;27.20;;;4.60;;
3280;SDS011;1652;51.318;6.202;2023-02-04T04:51:07;27.13;;;6.10;;
3280;SDS011;1652;51.318;6.202;2023-02-04T04:53:34;25.33;;;5.20;;
3280;SDS011;1652;51.318;6.202;2023-02-04T04:56:01;21.07;;;5.57;;
3280;SDS011;1652;51.318;6.202;2023-02-04T04:58:28;31.53;;;4.93;;
3280;SDS011;1652;51.318;6.202;2023-02-04T05:00:55;21.27;;;4.93;;
3280;SDS011;1652;51.318;6.202;2023-02-04T05:03:22;16.60;;;6.07;;
3280;SDS011;1652;51.318;6.202;2023-02-04T05:05:49;18.20;;;5.13;;
3280;SDS011;1652;51.318;6.202;2023-02-04T05:08:16;32.43;;;5.47;;
3280;SDS011;1652;51.318;6.202;2023-02-04T05:10:44;29.20;;;5.83;;
3280;SDS011;1652;51.318;6.202;2023-02-04T05:13:11;12.47;;;4.27;;
3280;SDS011;1652;51.318;6.202;2023-02-04T05:15:38;21.13;;;4.80;;
3280;SDS011;1652;51.318;6.202;2023-02-04T05:18:05;21.27;;;4.20;;
3280;SDS011;1652;51.318;6.202;2023-02-04T05:20:32;22.13;;;5.13;;
3280;SDS011;1652;51.318;6.202;2023-02-04T05:22:59;25.90;;;6.13;;
3280;SDS011;1652;51.318;6.202;2023-02-04T05:25:27;20.70;;;4.70;;
3280;SDS011;1652;51.318;6.202;2023-02-04T05:27:54;18.17;;;5.17;;
3280;SDS011;1652;51.318;6.202;2023-02-04T05:32:46;25.53;;;5.00;;
3280;SDS011;1652;51.318;6.202;2023-02-04T05:35:13;34.20;;;4.83;;
3280;SDS011;1652;51.318;6.202;2023-02-04T05:37:39;36.13;;;6.63;;
3280;SDS011;1652;51.318;6.202;2023-02-04T05:40:06;43.90;;;6.77;;
3280;SDS011;1652;51.318;6.202;2023-02-04T05:42:33;35.63;;;5.77;;
3280;SDS011;1652;51.318;6.202;2023-02-04T05:45:00;34.17;;;6.63;;
3280;SDS011;1652;51.318;6.202;2023-02-04T05:47:27;14.53;;;4.50;;
3280;SDS011;1652;51.318;6.202;2023-02-04T05:49:54;27.33;;;6.10;;
3280;SDS011;1652;51.318;6.202;2023-02-04T05:52:21;34.00;;;6.20;;
3280;SDS011;1652;51.318;6.202;2023-02-04T05:54:47;23.97;;;5.33;;
3280;SDS011;1652;51.318;6.202;2023-02-04T05:57:14;38.77;;;7.33;;
3280;SDS011;1652;51.318;6.202;2023-02-04T05:59:41;19.83;;;5.40;;
3280;SDS011;1652;51.318;6.202;2023-02-04T06:02:08;25.30;;;5.73;;
3280;SDS011;1652;51.318;6.202;2023-02-04T06:04:34;20.67;;;5.40;;
3280;SDS011;1652;51.318;6.202;2023-02-04T06:07:01;29.20;;;6.43;;
3280;SDS011;1652;51.318;6.202;2023-02-04T06:09:28;19.07;;;5.67;;
3280;SDS011;1652;51.318;6.202;2023-02-04T06:11:55;22.70;;;5.33;;
3280;SDS011;1652;51.318;6.202;2023-02-04T06:14:22;28.17;;;6.70;;
3280;SDS011;1652;51.318;6.202;2023-02-04T06:16:49;27.27;;;5.47;;
3280;SDS011;1652;51.318;6.202;2023-02-04T06:19:16;19.07;;;5.67;;
3280;SDS011;1652;51.318;6.202;2023-02-04T06:21:43;27.60;;;5.67;;
3280;SDS011;1652;51.318;6.202;2023-02-04T06:24:09;23.50;;;6.33;;
3280;SDS011;1652;51.318;6.202;2023-02-04T06:26:36;34.33;;;7.40;;
3280;SDS011;1652;51.318;6.202;2023-02-04T06:29:03;27.20;;;6.23;;
3280;SDS011;1652;51.318;6.202;2023-02-04T06:31:30;32.17;;;6.10;;
3280;SDS011;1652;51.318;6.202;2023-02-04T06:33:57;23.67;;;6.07;;
3280;SDS011;1652;51.318;6.202;2023-02-04T06:36:25;17.63;;;6.53;;
3280;SDS011;1652;51.318;6.202;2023-02-04T06:38:51;19.63;;;6.40;;
3280;SDS011;1652;51.318;6.202;2023-02-04T06:41:18;31.83;;;6.80;;
3280;SDS011;1652;51.318;6.202;2023-02-04T06:43:45;32.60;;;7.23;;
3280;SDS011;1652;51.318;6.202;2023-02-04T06:46:12;23.90;;;7.53;;
3280;SDS011;1652;51.318;6.202;2023-02-04T06:48:38;32.07;;;7.60;;
3280;SDS011;1652;51.318;6.202;2023-02-04T06:51:05;36.77;;;7.30;;
3280;SDS011;1652;51.318;6.202;2023-02-04T06:53:32;26.10;;;6.77;;
3280;SDS011;1652;51.318;6.202;2023-02-04T06:55:59;31.07;;;7.57;;
3280;SDS011;1652;51.318;6.202;2023-02-04T06:58:26;42.57;;;7.80;;
3280;SDS011;1652;51.318;6.202;2023-02-04T07:00:52;25.00;;;7.57;;
3280;SDS011;1652;51.318;6.202;2023-02-04T07:03:19;36.63;;;6.43;;
3280;SDS011;1652;51.318;6.202;2023-02-04T07:05:46;36.17;;;7.03;;
3280;SDS011;1652;51.318;6.202;2023-02-04T07:08:13;28.40;;;7.27;;
3280;SDS011;1652;51.318;6.202;2023-02-04T07:10:39;20.80;;;6.60;;
3280;SDS011;1652;51.318;6.202;2023-02-04T07:13:06;40.93;;;7.27;;
3280;SDS011;1652;51.318;6.202;2023-02-04T07:15:33;38.73;;;8.77;;
3280;SDS011;1652;51.318;6.202;2023-02-04T07:18:00;26.03;;;6.40;;
3280;SDS011;1652;51.318;6.202;2023-02-04T07:20:27;33.60;;;8.60;;
3280;SDS011;1652;51.318;6.202;2023-02-04T07:22:53;28.27;;;6.83;;
3280;SDS011;1652;51.318;6.202;2023-02-04T07:25:20;28.30;;;7.00;;
3280;SDS011;1652;51.318;6.202;2023-02-04T07:27:47;26.63;;;6.77;;
3280;SDS011;1652;51.318;6.202;2023-02-04T07:32:45;28.63;;;7.17;;
3280;SDS011;1652;51.318;6.202;2023-02-04T07:35:12;32.23;;;8.63;;
3280;SDS011;1652;51.318;6.202;2023-02-04T07:37:39;34.50;;;8.30;;
3280;SDS011;1652;51.318;6.202;2023-02-04T07:40:06;31.13;;;9.87;;
3280;SDS011;1652;51.318;6.202;2023-02-04T07:42:34;29.93;;;7.83;;
3280;SDS011;1652;51.318;6.202;2023-02-04T07:45:01;25.17;;;7.23;;
3280;SDS011;1652;51.318;6.202;2023-02-04T07:47:27;22.70;;;7.23;;
3280;SDS011;1652;51.318;6.202;2023-02-04T07:49:54;25.80;;;8.07;;
3280;SDS011;1652;51.318;6.202;2023-02-04T07:52:25;30.63;;;8.10;;
3280;SDS011;1652;51.318;6.202;2023-02-04T07:54:52;24.37;;;8.50;;
3280;SDS011;1652;51.318;6.202;2023-02-04T07:57:18;52.60;;;10.23;;
3280;SDS011;1652;51.318;6.202;2023-02-04T07:59:45;42.87;;;13.37;;
3280;SDS011;1652;51.318;6.202;2023-02-04T08:02:12;25.47;;;10.13;;
3280;SDS011;1652;51.318;6.202;2023-02-04T08:04:39;36.80;;;10.53;;
3280;SDS011;1652;51.318;6.202;2023-02-04T08:07:06;34.93;;;10.23;;
3280;SDS011;1652;51.318;6.202;2023-02-04T08:09:33;40.70;;;11.00;;
3280;SDS011;1652;51.318;6.202;2023-02-04T08:12:00;32.90;;;10.10;;
3280;SDS011;1652;51.318;6.202;2023-02-04T08:14:26;42.23;;;9.60;;
3280;SDS011;1652;51.318;6.202;2023-02-04T08:16:53;35.80;;;12.10;;
3280;SDS011;1652;51.318;6.202;2023-02-04T08:19:20;43.33;;;13.37;;
3280;SDS011;1652;51.318;6.202;2023-02-04T08:21:47;40.90;;;15.07;;
3280;SDS011;1652;51.318;6.202;2023-02-04T08:24:14;42.13;;;15.07;;
3280;SDS011;1652;51.318;6.202;2023-02-04T08:26:42;39.90;;;14.10;;
3280;SDS011;1652;51.318;6.202;2023-02-04T08:29:09;27.30;;;11.90;;
3280;SDS011;1652;51.318;6.202;2023-02-04T08:31:37;43.07;;;12.30;;
3280;SDS011;1652;51.318;6.202;2023-02-04T08:34:04;42.73;;;12.30;;
3280;SDS011;1652;51.318;6.202;2023-02-04T08:36:31;35.03;;;11.77;;
3280;SDS011;1652;51.318;6.202;2023-02-04T08:38:58;36.00;;;12.80;;
3280;SDS011;1652;51.318;6.202;2023-02-04T08:41:28;38.50;;;11.50;;
3280;SDS011;1652;51.318;6.202;2023-02-04T08:43:55;46.03;;;13.20;;
3280;SDS011;1652;51.318;6.202;2023-02-04T08:46:22;29.97;;;11.63;;
3280;SDS011;1652;51.318;6.202;2023-02-04T08:48:50;30.57;;;12.60;;
3280;SDS011;1652;51.318;6.202;2023-02-04T08:51:17;33.57;;;11.03;;
3280;SDS011;1652;51.318;6.202;2023-02-04T08:53:45;46.40;;;11.10;;
3280;SDS011;1652;51.318;6.202;2023-02-04T08:56:12;36.00;;;11.53;;
3280;SDS011;1652;51.318;6.202;2023-02-04T08:58:43;31.33;;;11.20;;
3280;SDS011;1652;51.318;6.202;2023-02-04T09:01:10;26.60;;;10.83;;
3280;SDS011;1652;51.318;6.202;2023-02-04T09:03:38;29.53;;;10.80;;
3280;SDS011;1652;51.318;6.202;2023-02-04T09:06:06;43.07;;;11.07;;
3280;SDS011;1652;51.318;6.202;2023-02-04T09:08:34;36.53;;;11.90;;
3280;SDS011;1652;51.318;6.202;2023-02-04T09:11:01;36.60;;;11.93;;
3280;SDS011;1652;51.318;6.202;2023-02-04T09:13:30;29.63;;;10.43;;
3280;SDS011;1652;51.318;6.202;2023-02-04T09:15:58;34.23;;;11.33;;
3280;SDS011;1652;51.318;6.202;2023-02-04T09:18:25;37.80;;;11.00;;
3280;SDS011;1652;51.318;6.202;2023-02-04T09:20:52;34.50;;;11.47;;
3280;SDS011;1652;51.318;6.202;2023-02-04T09:23:20;38.37;;;11.17;;
3280;SDS011;1652;51.318;6.202;2023-02-04T09:25:48;37.90;;;12.37;;
3280;SDS011;1652;51.318;6.202;2023-02-04T09:28:16;35.70;;;11.80;;
3280;SDS011;1652;51.318;6.202;2023-02-04T09:30:44;34.47;;;11.57;;
3280;SDS011;1652;51.318;6.202;2023-02-04T09:33:13;32.57;;;11.20;;
3280;SDS011;1652;51.318;6.202;2023-02-04T09:35:42;44.50;;;11.80;;
3280;SDS011;1652;51.318;6.202;2023-02-04T09:38:09;31.90;;;11.60;;
3280;SDS011;1652;51.318;6.202;2023-02-04T09:40:37;39.20;;;11.90;;
3280;SDS011;1652;51.318;6.202;2023-02-04T09:43:08;44.57;;;11.37;;
3280;SDS011;1652;51.318;6.202;2023-02-04T09:45:38;33.03;;;12.77;;
3280;SDS011;1652;51.318;6.202;2023-02-04T09:48:05;42.33;;;10.93;;
3280;SDS011;1652;51.318;6.202;2023-02-04T09:50:35;31.23;;;9.73;;
3280;SDS011;1652;51.318;6.202;2023-02-04T09:53:03;30.20;;;9.33;;
3280;SDS011;1652;51.318;6.202;2023-02-04T09:55:33;38.00;;;11.57;;
3280;SDS011;1652;51.318;6.202;2023-02-04T09:58:04;35.93;;;10.07;;
3280;SDS011;1652;51.318;6.202;2023-02-04T10:00:47;31.00;;;10.07;;
3280;SDS011;1652;51.318;6.202;2023-02-04T10:03:18;28.23;;;9.77;;
3280;SDS011;1652;51.318;6.202;2023-02-04T10:05:48;29.60;;;10.83;;
3280;SDS011;1652;51.318;6.202;2023-02-04T10:08:17;22.83;;;10.00;;
3280;SDS011;1652;51.318;6.202;2023-02-04T10:10:47;34.80;;;10.67;;
3280;SDS011;1652;51.318;6.202;2023-02-04T10:13:31;29.93;;;10.47;;
3280;SDS011;1652;51.318;6.202;2023-02-04T10:16:01;33.43;;;10.80;;
3280;SDS011;1652;51.318;6.202;2023-02-04T10:18:33;34.90;;;9.90;;
3280;SDS011;1652;51.318;6.202;2023-02-04T10:23:40;30.53;;;9.60;;
3280;SDS011;1652;51.318;6.202;2023-02-04T10:26:10;30.90;;;11.20;;
3280;SDS011;1652;51.318;6.202;2023-02-04T10:28:37;38.83;;;11.27;;
3280;SDS011;1652;51.318;6.202;2023-02-04T10:36:51;31.80;;;9.80;;
3280;SDS011;1652;51.318;6.202;2023-02-04T10:39:22;30.63;;;10.47;;
3280;SDS011;1652;51.318;6.202;2023-02-04T10:41:54;41.50;;;11.53;;
3280;SDS011;1652;51.318;6.202;2023-02-04T10:44:30;52.17;;;11.70;;
3280;SDS011;1652;51.318;6.202;2023-02-04T10:46:59;26.07;;;9.23;;
3280;SDS011;1652;51.318;6.202;2023-02-04T10:49:27;29.10;;;11.37;;
3280;SDS011;1652;51.318;6.202;2023-02-04T10:51:54;30.47;;;10.20;;
3280;SDS011;1652;51.318;6.202;2023-02-04T10:54:33;34.43;;;10.13;;
3280;SDS011;1652;51.318;6.202;2023-02-04T10:57:17;42.93;;;12.73;;
3280;SDS011;1652;51.318;6.202;2023-02-04T10:59:47;69.43;;;32.07;;
3280;SDS011;1652;51.318;6.202;2023-02-04T11:04:59;37.97;;;11.50;;
3280;SDS011;1652;51.318;6.202;2023-02-04T11:07:26;35.07;;;9.80;;
3280;SDS011;1652;51.318;6.202;2023-02-04T11:09:54;26.97;;;10.50;;
3280;SDS011;1652;51.318;6.202;2023-02-04T11:12:34;38.53;;;10.87;;
3280;SDS011;1652;51.318;6.202;2023-02-04T11:15:03;29.63;;;11.03;;
3280;SDS011;1652;51.318;6.202;2023-02-04T11:17:32;41.17;;;10.83;;
3280;SDS011;1652;51.318;6.202;2023-02-04T11:20:11;61.33;;;25.83;;
3280;SDS011;1652;51.318;6.202;2023-02-04T11:22:41;45.13;;;15.77;;
3280;SDS011;1652;51.318;6.202;2023-02-04T11:25:32;32.80;;;9.97;;
3280;SDS011;1652;51.318;6.202;2023-02-04T11:28:00;29.33;;;9.00;;
3280;SDS011;1652;51.318;6.202;2023-02-04T11:30:39;39.87;;;9.07;;
3280;SDS011;1652;51.318;6.202;2023-02-04T11:33:21;23.57;;;8.07;;
3280;SDS011;1652;51.318;6.202;2023-02-04T11:35:59;26.40;;;8.27;;
3280;SDS011;1652;51.318;6.202;2023-02-04T11:38:30;31.03;;;8.30;;
3280;SDS011;1652;51.318;6.202;2023-02-04T11:40:58;30.07;;;8.70;;
3280;SDS011;1652;51.318;6.202;2023-02-04T11:43:26;39.67;;;9.40;;
3280;SDS011;1652;51.318;6.202;2023-02-04T11:46:03;27.67;;;7.67;;
3280;SDS011;1652;51.318;6.202;2023-02-04T11:48:36;25.40;;;7.53;;
3280;SDS011;1652;51.318;6.202;2023-02-04T11:51:08;27.80;;;6.60;;
3280;SDS011;1652;51.318;6.202;2023-02-04T11:53:38;22.87;;;7.10;;
3280;SDS011;1652;51.318;6.202;2023-02-04T11:56:05;27.10;;;6.20;;
3280;SDS011;1652;51.318;6.202;2023-02-04T11:58:32;25.40;;;7.10;;
3280;SDS011;1652;51.318;6.202;2023-02-04T12:00:58;25.43;;;7.00;;
3280;SDS011;1652;51.318;6.202;2023-02-04T12:03:29;24.13;;;6.53;;
3280;SDS011;1652;51.318;6.202;2023-02-04T12:05:59;28.23;;;7.27;;
3280;SDS011;1652;51.318;6.202;2023-02-04T12:11:12;25.03;;;5.43;;
3280;SDS011;1652;51.318;6.202;2023-02-04T12:13:56;39.43;;;6.63;;
3280;SDS011;1652;51.318;6.202;2023-02-04T12:16:24;26.80;;;6.00;;
3280;SDS011;1652;51.318;6.202;2023-02-04T12:18:51;24.50;;;5.77;;
3280;SDS011;1652;51.318;6.202;2023-02-04T12:21:18;15.30;;;4.70;;
3280;SDS011;1652;51.318;6.202;2023-02-04T12:23:45;15.37;;;5.80;;
3280;SDS011;1652;51.318;6.202;2023-02-04T12:26:12;33.63;;;5.90;;
3280;SDS011;1652;51.318;6.202;2023-02-04T12:28:39;40.00;;;6.83;;
3280;SDS011;1652;51.318;6.202;2023-02-04T12:31:06;25.10;;;6.97;;
3280;SDS011;1652;51.318;6.202;2023-02-04T12:33:33;26.03;;;6.50;;
3280;SDS011;1652;51.318;6.202;2023-02-04T12:35:59;21.90;;;4.70;;
3280;SDS011;1652;51.318;6.202;2023-02-04T12:38:26;41.50;;;5.00;;
3280;SDS011;1652;51.318;6.202;2023-02-04T12:40:53;19.33;;;5.83;;
3280;SDS011;1652;51.318;6.202;2023-02-04T12:43:20;22.43;;;5.67;;
3280;SDS011;1652;51.318;6.202;2023-02-04T12:45:47;25.77;;;5.80;;
3280;SDS011;1652;51.318;6.202;2023-02-04T12:48:15;17.13;;;4.87;;
3280;SDS011;1652;51.318;6.202;2023-02-04T12:50:42;24.07;;;6.10;;
3280;SDS011;1652;51.318;6.202;2023-02-04T12:53:09;19.20;;;5.10;;
3280;SDS011;1652;51.318;6.202;2023-02-04T12:55:35;22.03;;;5.27;;
3280;SDS011;1652;51.318;6.202;2023-02-04T12:58:02;30.20;;;7.13;;
3280;SDS011;1652;51.318;6.202;2023-02-04T13:00:33;20.03;;;5.50;;
3280;SDS011;1652;51.318;6.202;2023-02-04T13:03:02;17.90;;;4.27;;
3280;SDS011;1652;51.318;6.202;2023-02-04T13:05:30;27.40;;;5.53;;
3280;SDS011;1652;51.318;6.202;2023-02-04T13:08:00;19.10;;;4.77;;
3280;SDS011;1652;51.318;6.202;2023-02-04T13:10:27;21.20;;;4.83;;
3280;SDS011;1652;51.318;6.202;2023-02-04T13:12:54;24.03;;;5.40;;
3280;SDS011;1652;51.318;6.202;2023-02-04T13:15:21;22.63;;;4.70;;
3280;SDS011;1652;51.318;6.202;2023-02-04T13:17:47;22.83;;;5.27;;
3280;SDS011;1652;51.318;6.202;2023-02-04T13:20:14;17.10;;;5.50;;
3280;SDS011;1652;51.318;6.202;2023-02-04T13:22:41;21.90;;;4.63;;
3280;SDS011;1652;51.318;6.202;2023-02-04T13:25:08;21.50;;;5.57;;
3280;SDS011;1652;51.318;6.202;2023-02-04T13:27:37;18.77;;;5.00;;
3280;SDS011;1652;51.318;6.202;2023-02-04T13:30:05;34.67;;;4.53;;
3280;SDS011;1652;51.318;6.202;2023-02-04T13:32:33;21.37;;;6.30;;
3280;SDS011;1652;51.318;6.202;2023-02-04T13:35:00;24.17;;;7.30;;
3280;SDS011;1652;51.318;6.202;2023-02-04T13:37:27;25.33;;;4.87;;
3280;SDS011;1652;51.318;6.202;2023-02-04T13:39:54;18.60;;;5.80;;
3280;SDS011;1652;51.318;6.202;2023-02-04T13:42:24;16.43;;;4.30;;
3280;SDS011;1652;51.318;6.202;2023-02-04T13:44:50;24.67;;;4.30;;
3280;SDS011;1652;51.318;6.202;2023-02-04T13:47:17;19.63;;;5.50;;
3280;SDS011;1652;51.318;6.202;2023-02-04T13:49:44;14.73;;;4.63;;
3280;SDS011;1652;51.318;6.202;2023-02-04T13:52:11;14.97;;;4.30;;
3280;SDS011;1652;51.318;6.202;2023-02-04T13:54:37;18.70;;;5.80;;
3280;SDS011;1652;51.318;6.202;2023-02-04T13:57:04;21.27;;;5.17;;
3280;SDS011;1652;51.318;6.202;2023-02-04T13:59:31;26.30;;;5.30;;
3280;SDS011;1652;51.318;6.202;2023-02-04T14:01:58;30.30;;;5.40;;
3280;SDS011;1652;51.318;6.202;2023-02-04T14:04:25;25.07;;;5.70;;
3280;SDS011;1652;51.318;6.202;2023-02-04T14:06:52;30.43;;;6.43;;
3280;SDS011;1652;51.318;6.202;2023-02-04T14:09:20;23.80;;;5.23;;
3280;SDS011;1652;51.318;6.202;2023-02-04T14:11:48;15.30;;;4.63;;
3280;SDS011;1652;51.318;6.202;2023-02-04T14:14:14;20.47;;;5.00;;
3280;SDS011;1652;51.318;6.202;2023-02-04T14:16:41;19.30;;;4.60;;
3280;SDS011;1652;51.318;6.202;2023-02-04T14:19:08;21.43;;;6.47;;
3280;SDS011;1652;51.318;6.202;2023-02-04T14:21:35;21.73;;;4.87;;
3280;SDS011;1652;51.318;6.202;2023-02-04T14:24:02;16.37;;;4.57;;
3280;SDS011;1652;51.318;6.202;2023-02-04T14:26:29;23.20;;;4.37;;
3280;SDS011;1652;51.318;6.202;2023-02-04T14:28:56;17.93;;;5.80;;
3280;SDS011;1652;51.318;6.202;2023-02-04T14:31:22;19.43;;;5.97;;
3280;SDS011;1652;51.318;6.202;2023-02-04T14:33:49;10.70;;;4.00;;
3280;SDS011;1652;51.318;6.202;2023-02-04T14:36:16;24.07;;;5.03;;
3280;SDS011;1652;51.318;6.202;2023-02-04T14:38:43;62.83;;;29.13;;
3280;SDS011;1652;51.318;6.202;2023-02-04T14:41:10;31.97;;;6.53;;
3280;SDS011;1652;51.318;6.202;2023-02-04T14:43:41;18.00;;;5.30;;
3280;SDS011;1652;51.318;6.202;2023-02-04T14:46:08;21.10;;;5.60;;
3280;SDS011;1652;51.318;6.202;2023-02-04T14:48:35;16.03;;;4.30;;
3280;SDS011;1652;51.318;6.202;2023-02-04T14:51:02;13.20;;;4.73;;
3280;SDS011;1652;51.318;6.202;2023-02-04T14:53:29;38.23;;;6.53;;
3280;SDS011;1652;51.318;6.202;2023-02-04T14:55:56;13.30;;;4.53;;
3280;SDS011;1652;51.318;6.202;2023-02-04T14:58:23;23.10;;;5.13;;
3280;SDS011;1652;51.318;6.202;2023-02-04T15:00:53;19.70;;;4.50;;
3280;SDS011;1652;51.318;6.202;2023-02-04T15:03:20;15.30;;;4.63;;
3280;SDS011;1652;51.318;6.202;2023-02-04T15:05:47;20.43;;;4.63;;
3280;SDS011;1652;51.318;6.202;2023-02-04T15:08:14;17.33;;;4.37;;
3280;SDS011;1652;51.318;6.202;2023-02-04T15:10:40;15.50;;;5.03;;
3280;SDS011;1652;51.318;6.202;2023-02-04T15:13:08;25.17;;;5.90;;
3280;SDS011;1652;51.318;6.202;2023-02-04T15:15:35;21.97;;;5.60;;
3280;SDS011;1652;51.318;6.202;2023-02-04T15:18:02;20.93;;;5.20;;
3280;SDS011;1652;51.318;6.202;2023-02-04T15:20:29;16.87;;;5.27;;
3280;SDS011;1652;51.318;6.202;2023-02-04T15:22:56;18.80;;;5.63;;
3280;SDS011;1652;51.318;6.202;2023-02-04T15:25:25;16.90;;;5.30;;